Startpagina
METAR-TAF:

METAR-TAF

Vliegvelden :

Bamako, Mali

Luchthaven Bamako

breedte: 12-32N, lengte: 007-57W, hoogte: 380 m

Actueel weer

Dit bericht is 16 minuten geleden gemaakt, om 20:00 UTC
Wind 6 kt uit het noordnoordwesten
Temperatuur 33°C
Vochtigheid 28%
Druk 1011 hPa
Zicht 10 km of meer
Weinig wolken op 3000 ft

METAR: GABS 242000Z 34006KT 9999 FEW030 33/12 Q1011 NOSIG

Tijdstip: 20:16 (20:16 UTC)

Verwachting

Dit bericht is 3 uur en het 6 minuten geleden gemaakt, om 17:10 UTC
Verwachting geldig van 24 om 18 UTC tot 25 om 24 UTC
Wind 8 kt uit het zuiden
Zicht 10 km of meer
geen wolken onder 1500 m en geen cumulonimbus
Wijzigt naar
van 24 om 22 UTC tot 24 om 24 UTC
Wind 10 kt uit het noordnoordoosten

TAF: GABS 241710Z 2418/2524 19008KT CAVOK BECMG 2422/2424 03010KT

Waarnemingen en weersverwachtingen van meer dan 4000 vliegvelden (METAR en TAF).

De beschikbare stations zijn de gele en rode punten op de kaart.

Ga met uw muis naar het station om de naam te zien.

Klik dan om waarnemingen en weersverwachtingen te zien.

kaart wijzigen: klik op de groene knoppen met een zwart kruis om in te zoomen, op de groene knop met een streepje om uit te zoomen of op de groene pijlen voor aangrenzende kaarten.


METAR-TAF: